Time;durP1;ratioP1;P1;durP2;ratioP2;P2;SDS_P1;SDS_P2;PMS_P1;PMS_P2;Temp;Humidity;BMP_temperature;BMP_pressure;BME280_temperature;BME280_humidity;BME280_pressure;Samples;Min_cycle;Max_cycle;Signal;HPM_P1;HPM_P2
2021/08/16 00:00:15;;;;;;;12.95;10.52;;;;;;;23.63;86.30;97638.97;5053055;28;20021;-72
2021/08/16 00:02:42;;;;;;;12.70;10.15;;;;;;;23.69;85.26;97636.63;5070955;28;20025;-72
2021/08/16 00:05:09;;;;;;;17.73;11.48;;;;;;;23.45;85.86;97644.44;5054514;28;20020;-73
2021/08/16 00:07:34;;;;;;;11.55;9.25;;;;;;;23.42;85.20;97642.44;5075275;28;20036;-74
2021/08/16 00:09:59;;;;;;;11.13;9.20;;;;;;;23.42;82.94;97661.97;5062877;28;20066;-75
2021/08/16 00:12:25;;;;;;;13.05;8.80;;;;;;;23.40;80.79;97657.94;5071609;28;20474;-74
2021/08/16 00:14:50;;;;;;;10.43;8.50;;;;;;;23.36;79.80;97655.13;5070218;28;20043;-74
2021/08/16 00:17:16;;;;;;;10.68;7.68;;;;;;;23.44;79.66;97669.94;5070292;28;20547;-75
2021/08/16 00:19:41;;;;;;;9.93;8.00;;;;;;;23.48;79.07;97658.81;5052528;28;20035;-73
2021/08/16 00:22:07;;;;;;;9.48;7.68;;;;;;;23.30;79.33;97658.66;5052805;28;20050;-74
2021/08/16 00:24:33;;;;;;;9.18;7.93;;;;;;;23.32;79.15;97651.47;5052549;28;20058;-75
2021/08/16 00:26:59;;;;;;;10.90;7.63;;;;;;;23.48;77.71;97658.81;5052173;28;20393;-73
2021/08/16 00:29:25;;;;;;;10.65;7.40;;;;;;;23.54;77.78;97658.06;5052159;28;20020;-74
2021/08/16 00:31:50;;;;;;;11.10;7.63;;;;;;;23.46;77.54;97648.81;5070210;28;20508;-74
2021/08/16 00:34:16;;;;;;;12.07;7.28;;;;;;;23.38;77.65;97641.56;5052876;28;20017;-74
2021/08/16 00:36:42;;;;;;;12.60;8.13;;;;;;;23.30;76.97;97642.69;5070094;28;20135;-74
2021/08/16 00:39:07;;;;;;;10.10;8.23;;;;;;;23.29;78.22;97640.28;5052645;28;20519;-74
2021/08/16 00:41:33;;;;;;;12.88;8.25;;;;;;;23.15;78.34;97640.94;5052504;28;20039;-74
2021/08/16 00:44:00;;;;;;;13.32;8.40;;;;;;;23.09;79.13;97641.69;5052580;28;20033;-75
2021/08/16 00:46:25;;;;;;;18.00;7.85;;;;;;;23.22;79.59;97645.78;5052263;28;20027;-74
2021/08/16 00:48:50;;;;;;;9.27;8.20;;;;;;;23.22;80.20;97646.59;5052411;28;20032;-74
2021/08/16 00:51:16;;;;;;;14.75;7.45;;;;;;;23.19;81.31;97641.78;5071521;28;20036;-74
2021/08/16 00:53:42;;;;;;;14.00;9.07;;;;;;;23.18;82.16;97645.75;5069923;28;20076;-74
2021/08/16 00:56:07;;;;;;;12.35;8.05;;;;;;;23.10;81.53;97644.09;5070198;28;20028;-73
2021/08/16 00:58:33;;;;;;;11.20;8.00;;;;;;;23.23;80.83;97651.00;5052738;28;20032;-73
2021/08/16 01:01:00;;;;;;;10.25;7.90;;;;;;;23.26;80.36;97657.81;5070464;28;20185;-74
2021/08/16 01:03:26;;;;;;;8.48;7.30;;;;;;;23.29;78.91;97655.06;5052444;28;20024;-74
2021/08/16 01:05:53;;;;;;;10.82;7.70;;;;;;;23.38;77.13;97655.53;5070249;28;20029;-74
2021/08/16 01:08:20;;;;;;;7.65;5.78;;;;;;;23.34;76.70;97654.69;5070186;28;20104;-75
2021/08/16 01:10:46;;;;;;;10.75;7.13;;;;;;;23.42;76.99;97639.63;5085637;28;20115;-75
2021/08/16 01:13:12;;;;;;;8.73;6.90;;;;;;;23.50;77.22;97618.13;5070410;28;20028;-75
2021/08/16 01:15:37;;;;;;;8.90;7.05;;;;;;;23.51;77.45;97586.22;5051672;28;20086;-74
2021/08/16 01:18:03;;;;;;;10.32;7.13;;;;;;;23.40;78.35;97586.16;5052260;28;20024;-75
2021/08/16 01:20:28;;;;;;;9.60;7.65;;;;;;;23.23;81.02;97572.84;5085503;28;20491;-75
2021/08/16 01:22:56;;;;;;;10.95;8.07;;;;;;;23.18;83.56;97566.84;5051916;28;20028;-74
2021/08/16 01:25:21;;;;;;;9.75;8.40;;;;;;;23.05;84.96;97563.53;5069767;28;20033;-74
2021/08/16 01:27:46;;;;;;;14.65;9.13;;;;;;;22.99;85.74;97569.88;5051987;28;20028;-76
2021/08/16 01:30:16;;;;;;;13.63;10.10;;;;;;;23.12;86.03;97574.75;5051999;28;20028;-76
2021/08/16 01:32:43;;;;;;;13.77;8.75;;;;;;;23.13;85.42;97573.56;5056656;28;20385;-74
2021/08/16 01:35:10;;;;;;;12.52;9.68;;;;;;;22.93;85.30;97572.19;5073998;28;20566;-75
2021/08/16 01:37:35;;;;;;;14.48;9.10;;;;;;;22.82;86.63;97577.69;5070421;28;20028;-73
2021/08/16 01:40:01;;;;;;;11.32;9.75;;;;;;;22.80;87.27;97573.69;5069949;28;20082;-73
2021/08/16 01:42:26;;;;;;;13.68;9.25;;;;;;;22.71;88.02;97576.00;5052113;28;20028;-75
2021/08/16 01:44:51;;;;;;;10.63;9.43;;;;;;;22.66;88.83;97584.69;5055402;28;20081;-73
2021/08/16 01:47:17;;;;;;;11.18;9.32;;;;;;;22.44;90.21;97603.16;5073396;28;20033;-73
2021/08/16 01:49:42;;;;;;;12.55;9.73;;;;;;;22.33;90.39;97610.63;5073159;28;20029;-74
2021/08/16 01:52:09;;;;;;;10.90;8.30;;;;;;;22.25;89.89;97609.72;5073125;28;20039;-73
2021/08/16 01:54:36;;;;;;;10.20;9.07;;;;;;;22.24;89.44;97610.91;5055042;28;20024;-74
2021/08/16 01:57:01;;;;;;;8.75;7.90;;;;;;;22.21;89.29;97608.88;5073258;28;20116;-72
2021/08/16 01:59:27;;;;;;;11.80;9.23;;;;;;;22.08;88.39;97593.59;5054813;28;20109;-74
2021/08/16 02:01:52;;;;;;;11.18;8.55;;;;;;;22.14;87.22;97580.13;5073094;28;20370;-73
2021/08/16 02:04:17;;;;;;;9.30;7.85;;;;;;;22.10;86.30;97574.50;5055527;28;20515;-75
2021/08/16 02:06:43;;;;;;;18.02;7.97;;;;;;;22.22;85.90;97585.41;5072791;28;20029;-75
2021/08/16 02:09:08;;;;;;;11.05;8.27;;;;;;;22.13;87.16;97568.19;5054637;28;20047;-74
2021/08/16 02:11:34;;;;;;;10.38;8.07;;;;;;;22.17;87.89;97568.22;5072567;28;20393;-73
2021/08/16 02:13:59;;;;;;;15.50;9.75;;;;;;;22.18;88.11;97565.03;5072855;28;20108;-75
2021/08/16 02:16:25;;;;;;;8.73;7.90;;;;;;;22.27;87.21;97568.31;5054524;28;20039;-72
2021/08/16 02:18:50;;;;;;;9.27;8.35;;;;;;;22.35;87.31;97558.88;5072738;28;20036;-74
2021/08/16 02:21:16;;;;;;;14.70;8.73;;;;;;;22.32;86.91;97558.84;5054750;28;20421;-75
2021/08/16 02:23:41;;;;;;;9.00;8.10;;;;;;;22.27;87.46;97546.03;5088300;28;20031;-74
2021/08/16 02:26:07;;;;;;;9.15;7.60;;;;;;;22.18;87.41;97545.53;5055180;28;20572;-74
2021/08/16 02:28:33;;;;;;;13.00;8.25;;;;;;;22.34;86.66;97534.97;5074983;28;20043;-75
2021/08/16 02:30:59;;;;;;;10.98;8.32;;;;;;;22.25;87.31;97542.84;5073489;28;20021;-75
2021/08/16 02:33:24;;;;;;;13.55;8.43;;;;;;;22.28;87.32;97547.63;5054920;28;20024;-75
2021/08/16 02:35:50;;;;;;;8.35;7.25;;;;;;;22.28;87.39;97530.13;5072191;28;20056;-75
2021/08/16 02:38:15;;;;;;;13.75;10.50;;;;;;;22.25;87.48;97537.25;5072553;28;20037;-73
2021/08/16 02:40:40;;;;;;;9.50;8.48;;;;;;;22.13;88.84;97545.09;5054146;28;20029;-75
2021/08/16 02:43:07;;;;;;;9.38;8.40;;;;;;;22.00;89.44;97541.75;5072735;28;20078;-75
2021/08/16 02:45:33;;;;;;;8.32;7.32;;;;;;;22.06;88.76;97551.38;5072230;28;20116;-74
2021/08/16 02:47:58;;;;;;;9.35;8.45;;;;;;;21.95;89.53;97547.66;5072414;28;20107;-75
2021/08/16 02:50:24;;;;;;;11.73;8.70;;;;;;;22.00;89.47;97555.69;5071999;28;20032;-73
2021/08/16 02:52:51;;;;;;;10.30;7.82;;;;;;;22.07;89.26;97555.78;5054293;28;20074;-74
2021/08/16 02:55:17;;;;;;;9.10;7.60;;;;;;;21.96;89.55;97546.47;5072051;28;20074;-73
2021/08/16 02:57:42;;;;;;;12.70;8.25;;;;;;;22.00;88.75;97547.31;5053933;28;20408;-74
2021/08/16 03:00:08;;;;;;;10.30;8.38;;;;;;;21.88;89.50;97550.34;5054064;28;20526;-74
2021/08/16 03:02:33;;;;;;;12.57;8.75;;;;;;;21.81;89.80;97547.44;5072051;28;20111;-75
2021/08/16 03:04:59;;;;;;;9.75;8.00;;;;;;;21.78;90.04;97528.72;5072311;28;20032;-74
2021/08/16 03:07:25;;;;;;;10.15;8.40;;;;;;;21.72;89.82;97541.38;5053772;28;20028;-75
2021/08/16 03:09:50;;;;;;;13.10;8.23;;;;;;;21.49;91.66;97537.91;5071707;28;20028;-74
2021/08/16 03:12:18;;;;;;;9.38;8.38;;;;;;;21.52;91.58;97537.16;5071833;28;20036;-73
2021/08/16 03:14:43;;;;;;;13.18;8.50;;;;;;;21.46;92.58;97539.44;5053694;28;20032;-73
2021/08/16 03:17:09;;;;;;;10.88;8.10;;;;;;;21.60;91.59;97533.25;5071487;28;20040;-74
2021/08/16 03:19:34;;;;;;;12.38;7.78;;;;;;;21.71;91.27;97534.19;5071474;28;20528;-73
2021/08/16 03:22:00;;;;;;;9.13;8.18;;;;;;;21.59;91.24;97526.06;5071788;28;20021;-74
2021/08/16 03:24:25;;;;;;;8.95;7.88;;;;;;;21.55;91.19;97526.03;5053374;28;20059;-73
2021/08/16 03:26:51;;;;;;;11.15;7.93;;;;;;;21.44;91.72;97532.63;5053566;28;20040;-73
2021/08/16 03:29:17;;;;;;;9.80;7.35;;;;;;;21.48;91.51;97533.50;5053488;28;20047;-75
2021/08/16 03:31:43;;;;;;;12.70;7.35;;;;;;;21.61;90.57;97530.13;5071218;28;20465;-75
2021/08/16 03:34:09;;;;;;;9.90;7.65;;;;;;;21.54;90.73;97527.22;5053822;28;20029;-74
2021/08/16 03:36:35;;;;;;;8.82;8.02;;;;;;;21.31;91.55;97527.31;5070834;28;20092;-74
2021/08/16 03:39:00;;;;;;;8.77;7.85;;;;;;;21.17;91.67;97531.88;5071189;28;20025;-73
2021/08/16 03:41:26;;;;;;;11.70;8.07;;;;;;;21.06;92.76;97528.88;5053274;28;20059;-72
2021/08/16 03:43:51;;;;;;;9.07;7.95;;;;;;;21.01;93.23;97528.41;5053081;28;20031;-73
2021/08/16 03:46:17;;;;;;;9.25;7.95;;;;;;;20.99;92.01;97520.44;5071190;28;20054;-73
2021/08/16 03:48:43;;;;;;;12.77;8.07;;;;;;;20.98;91.28;97527.19;5071028;28;20033;-74
2021/08/16 03:51:09;;;;;;;10.35;7.68;;;;;;;20.96;91.03;97532.28;5071208;28;20052;-75
2021/08/16 03:53:34;;;;;;;7.10;6.35;;;;;;;20.88;90.53;97516.69;5053099;28;20151;-74
2021/08/16 03:56:00;;;;;;;10.98;6.95;;;;;;;21.12;90.04;97515.47;5070851;28;20024;-77
2021/08/16 03:58:25;;;;;;;11.45;6.70;;;;;;;21.25;88.76;97517.69;5070769;28;20504;-74
2021/08/16 04:00:50;;;;;;;11.38;7.60;;;;;;;21.03;88.22;97518.50;5052888;28;20064;-74
2021/08/16 04:03:16;;;;;;;10.02;7.00;;;;;;;20.93;86.79;97521.13;5070429;28;20481;-73
2021/08/16 04:05:41;;;;;;;8.52;6.60;;;;;;;20.82;87.36;97530.13;5070715;28;20025;-75
2021/08/16 04:08:07;;;;;;;10.70;6.50;;;;;;;20.74;88.09;97520.03;5070688;28;20115;-73
2021/08/16 04:10:32;;;;;;;7.07;6.40;;;;;;;20.57;87.40;97519.75;5052767;28;20381;-76
2021/08/16 04:12:58;;;;;;;7.80;6.20;;;;;;;20.52;88.16;97508.91;5052714;28;20028;-75
2021/08/16 04:15:23;;;;;;;13.48;6.82;;;;;;;20.69;87.42;97516.78;5070678;28;20017;-75
2021/08/16 04:17:49;;;;;;;8.43;6.32;;;;;;;20.75;86.83;97509.72;5052703;28;20082;-75
2021/08/16 04:20:16;;;;;;;11.40;6.88;;;;;;;20.84;86.57;97521.38;5052597;28;20067;-74
2021/08/16 04:22:42;;;;;;;9.90;6.63;;;;;;;20.95;86.17;97502.91;5070708;28;20482;-73
2021/08/16 04:25:10;;;;;;;9.55;5.97;;;;;;;20.92;86.29;97508.41;5070540;28;20067;-73
2021/08/16 04:27:37;;;;;;;7.07;5.97;;;;;;;21.02;85.96;97508.53;5068587;28;20029;-74
2021/08/16 04:30:03;;;;;;;15.68;7.15;;;;;;;21.23;84.85;97513.69;5070218;28;20033;-74
2021/08/16 04:32:28;;;;;;;8.25;6.30;;;;;;;21.08;85.33;97495.91;5052170;28;20085;-73
2021/08/16 04:34:54;;;;;;;10.75;7.45;;;;;;;21.16;85.41;97508.00;5070883;28;20451;-73
2021/08/16 04:37:21;;;;;;;7.85;6.65;;;;;;;21.12;86.00;97498.78;5053506;28;20024;-72
2021/08/16 04:39:46;;;;;;;11.27;7.88;;;;;;;21.21;86.07;97511.25;5052492;28;20414;-74
2021/08/16 04:42:11;;;;;;;10.00;6.93;;;;;;;21.42;85.02;97516.34;5052448;28;20028;-75
2021/08/16 04:44:37;;;;;;;9.90;8.32;;;;;;;21.43;85.67;97517.09;5071284;28;20162;-74
2021/08/16 04:47:02;;;;;;;10.32;7.13;;;;;;;21.40;85.31;97518.66;5055361;28;20028;-73
2021/08/16 04:49:28;;;;;;;10.32;7.25;;;;;;;21.13;87.16;97515.13;5053370;28;20390;-75
2021/08/16 04:51:54;;;;;;;9.98;7.70;;;;;;;21.11;87.63;97511.13;5052736;28;20028;-76
2021/08/16 04:54:19;;;;;;;9.07;6.82;;;;;;;21.21;87.48;97505.69;5052413;28;20031;-75
2021/08/16 04:56:44;;;;;;;8.95;6.82;;;;;;;21.14;87.84;97500.03;5069946;28;20044;-74
2021/08/16 04:59:10;;;;;;;12.77;7.40;;;;;;;21.24;88.42;97523.59;5051838;28;20025;-74
2021/08/16 05:01:36;;;;;;;9.38;7.32;;;;;;;21.23;88.95;97525.59;5051914;28;20054;-73
2021/08/16 05:04:02;;;;;;;9.38;7.55;;;;;;;21.17;89.94;97518.78;5052587;28;20045;-75
2021/08/16 05:06:32;;;;;;;8.60;7.47;;;;;;;21.45;88.95;97514.78;5070090;28;20586;-73
2021/08/16 05:09:02;;;;;;;16.58;8.32;;;;;;;21.69;86.88;97519.84;5070176;28;20031;-74
2021/08/16 05:11:30;;;;;;;12.43;7.72;;;;;;;21.93;85.19;97521.38;5070296;28;20024;-75
2021/08/16 05:13:56;;;;;;;10.18;7.78;;;;;;;22.16;83.82;97527.59;5070260;28;20519;-73
2021/08/16 05:16:25;;;;;;;7.88;6.60;;;;;;;22.42;82.01;97536.66;5051931;28;20051;-74
2021/08/16 05:18:52;;;;;;;13.75;7.13;;;;;;;22.67;80.95;97541.69;5072751;28;20028;-75
2021/08/16 05:21:19;;;;;;;14.27;7.72;;;;;;;22.64;80.23;97531.28;5077372;28;20020;-74
2021/08/16 05:23:44;;;;;;;9.77;6.88;;;;;;;22.69;79.64;97533.72;5079678;28;20028;-75
2021/08/16 05:26:10;;;;;;;10.88;7.80;;;;;;;22.83;78.78;97545.03;5074859;28;20094;-74
2021/08/16 05:28:35;;;;;;;15.30;7.55;;;;;;;22.63;79.84;97541.63;5055692;28;20504;-74
2021/08/16 05:31:01;;;;;;;8.82;6.60;;;;;;;22.83;78.48;97557.00;5073493;28;20436;-75
2021/08/16 05:33:26;;;;;;;11.00;7.00;;;;;;;22.94;78.69;97555.06;5055678;28;20028;-73
2021/08/16 05:35:51;;;;;;;14.20;7.85;;;;;;;23.12;77.46;97562.81;5073708;28;20563;-74
2021/08/16 05:38:17;;;;;;;11.88;7.50;;;;;;;22.96;76.95;97562.28;5073648;28;20032;-73
2021/08/16 05:40:42;;;;;;;10.07;7.28;;;;;;;22.95;76.43;97555.88;5073372;28;20028;-73
2021/08/16 05:43:08;;;;;;;9.43;6.82;;;;;;;23.06;76.35;97559.53;5055535;28;20029;-72
2021/08/16 05:45:33;;;;;;;9.75;6.57;;;;;;;23.36;75.56;97568.56;5072167;28;20053;-76
2021/08/16 05:47:59;;;;;;;11.77;7.18;;;;;;;23.31;75.95;97568.09;5055739;28;20054;-73
2021/08/16 05:50:25;;;;;;;11.93;7.65;;;;;;;23.51;75.64;97563.09;5073560;28;20024;-73
2021/08/16 05:52:51;;;;;;;12.75;6.53;;;;;;;23.63;75.22;97565.53;5073560;28;20063;-73
2021/08/16 05:55:16;;;;;;;10.38;7.05;;;;;;;23.82;74.53;97577.22;5055428;28;20036;-73
2021/08/16 05:57:42;;;;;;;8.80;7.95;;;;;;;23.94;74.55;97576.88;5065243;28;20754;-72
2021/08/16 06:00:08;;;;;;;9.65;7.53;;;;;;;24.25;73.30;97592.22;5053179;28;20021;-74
2021/08/16 06:02:35;;;;;;;8.95;7.05;;;;;;;24.45;73.12;97585.09;5060050;28;20044;-72
2021/08/16 06:05:00;;;;;;;10.32;6.85;;;;;;;24.77;72.05;97573.97;5073593;28;20135;-74
2021/08/16 06:07:26;;;;;;;10.05;7.32;;;;;;;25.01;70.68;97583.63;5073621;28;20519;-74
2021/08/16 06:09:52;;;;;;;11.25;7.20;;;;;;;24.99;70.03;97569.22;5055761;28;20051;-75
2021/08/16 06:12:17;;;;;;;13.55;7.40;;;;;;;24.65;71.01;97573.56;5072930;28;20032;-74
2021/08/16 06:14:43;;;;;;;11.98;8.43;;;;;;;24.31;72.21;97568.28;5066186;28;20076;-73
2021/08/16 06:17:08;;;;;;;12.07;7.47;;;;;;;24.58;71.58;97570.75;5052775;28;20033;-73
2021/08/16 06:19:34;;;;;;;9.23;8.27;;;;;;;24.19;73.03;97568.63;5052595;28;20053;-76
2021/08/16 06:21:59;;;;;;;14.63;8.60;;;;;;;24.74;70.81;97573.97;5051684;28;20104;-74
2021/08/16 06:24:25;;;;;;;10.52;8.07;;;;;;;24.49;71.90;97574.72;5052458;28;20436;-74
2021/08/16 06:26:51;;;;;;;14.27;9.93;;;;;;;24.71;71.67;97560.78;5052422;28;20033;-73
2021/08/16 06:29:16;;;;;;;14.38;10.82;;;;;;;25.08;70.58;97558.41;5051859;28;20035;-73
2021/08/16 06:31:41;;;;;;;20.50;12.23;;;;;;;25.04;70.22;97554.81;5052735;28;20054;-73
2021/08/16 06:34:08;;;;;;;14.10;11.93;;;;;;;25.40;67.95;97562.00;5052535;28;20714;-72
2021/08/16 06:36:40;;;;;;;17.35;10.43;;;;;;;26.13;65.69;97556.59;5051698;28;20403;-74
2021/08/16 06:39:21;;;;;;;14.93;12.07;;;;;;;26.00;65.94;97563.88;5052457;28;20497;-75
2021/08/16 06:41:50;;;;;;;15.38;10.25;;;;;;;25.90;66.49;97551.50;5052471;28;20033;-74
2021/08/16 06:44:18;;;;;;;12.93;10.82;;;;;;;26.22;65.47;97545.75;5052485;28;20021;-75
2021/08/16 06:46:44;;;;;;;20.10;12.30;;;;;;;27.08;63.15;97549.63;5034483;28;20048;-73
2021/08/16 06:49:10;;;;;;;17.15;11.30;;;;;;;27.24;61.84;97549.09;5052088;28;20025;-73
2021/08/16 06:51:35;;;;;;;11.25;9.75;;;;;;;27.31;61.91;97549.84;5061173;28;20032;-73
2021/08/16 06:54:01;;;;;;;14.70;10.90;;;;;;;27.44;61.70;97548.09;5071250;28;20100;-73
2021/08/16 06:56:27;;;;;;;11.75;9.70;;;;;;;27.02;62.78;97554.09;5071825;28;20111;-73
2021/08/16 06:58:52;;;;;;;14.68;9.90;;;;;;;27.05;62.62;97542.84;5071447;28;20485;-72
2021/08/16 07:01:22;;;;;;;15.82;8.85;;;;;;;27.41;61.49;97543.28;5072126;28;20029;-75
2021/08/16 07:03:48;;;;;;;10.73;8.43;;;;;;;27.48;60.41;97546.06;5075565;28;20465;-75
2021/08/16 07:06:14;;;;;;;20.50;8.18;;;;;;;27.58;60.59;97544.38;5060166;28;20152;-73
2021/08/16 07:08:40;;;;;;;16.25;10.27;;;;;;;27.35;61.08;97550.56;5072178;28;20035;-73
2021/08/16 07:11:06;;;;;;;16.35;9.32;;;;;;;26.96;61.73;97545.31;5071866;28;20012;-73
2021/08/16 07:13:31;;;;;;;9.40;8.48;;;;;;;26.94;61.80;97546.94;5053971;28;20047;-72
2021/08/16 07:15:57;;;;;;;13.45;8.77;;;;;;;27.74;59.91;97547.41;5072177;28;20036;-72
2021/08/16 07:18:22;;;;;;;14.07;9.15;;;;;;;27.88;58.14;97544.41;5071489;28;20032;-73
2021/08/16 07:20:48;;;;;;;12.10;8.45;;;;;;;27.73;59.55;97553.44;5071712;28;20488;-72
2021/08/16 07:23:13;;;;;;;11.48;8.73;;;;;;;27.99;57.69;97550.72;5053581;28;20036;-73
2021/08/16 07:25:39;;;;;;;13.65;9.32;;;;;;;28.13;57.06;97544.16;5070788;28;20039;-75
2021/08/16 07:28:04;;;;;;;9.75;8.75;;;;;;;28.43;56.25;97552.59;5052331;28;20026;-74
2021/08/16 07:30:30;;;;;;;13.43;8.68;;;;;;;28.29;55.74;97547.16;5070630;28;20059;-73
2021/08/16 07:32:55;;;;;;;19.98;9.52;;;;;;;27.90;57.63;97553.25;5070829;28;20012;-73
2021/08/16 07:35:21;;;;;;;9.35;8.25;;;;;;;28.24;56.73;97556.06;5070236;28;20044;-73
2021/08/16 07:37:47;;;;;;;12.57;8.73;;;;;;;28.03;57.04;97545.06;5070616;28;20112;-73
2021/08/16 07:40:13;;;;;;;15.10;7.85;;;;;;;28.10;57.09;97544.97;5060894;28;20031;-74
2021/08/16 07:42:39;;;;;;;10.38;7.15;;;;;;;28.28;56.44;97550.41;5051656;28;20106;-74
2021/08/16 07:45:07;;;;;;;10.55;8.00;;;;;;;28.01;57.28;97547.47;5051991;28;20021;-74
2021/08/16 07:47:32;;;;;;;13.57;7.78;;;;;;;27.61;58.08;97535.09;5069691;28;20030;-73
2021/08/16 07:49:57;;;;;;;9.70;7.35;;;;;;;27.50;57.90;97528.81;5069564;28;20021;-74
2021/08/16 07:52:23;;;;;;;13.60;7.45;;;;;;;26.98;58.90;97530.84;5068951;28;20008;-73
2021/08/16 07:54:48;;;;;;;14.93;8.20;;;;;;;26.88;59.83;97531.72;5051135;28;20126;-73
2021/08/16 07:57:14;;;;;;;10.98;8.07;;;;;;;26.61;59.79;97535.13;5068961;28;20031;-75
2021/08/16 07:59:39;;;;;;;9.30;6.97;;;;;;;26.78;59.37;97543.81;5069259;28;20112;-74
2021/08/16 08:02:05;;;;;;;11.95;8.30;;;;;;;26.94;59.30;97546.94;5068890;28;20385;-73
2021/08/16 08:04:33;;;;;;;8.05;6.22;;;;;;;27.60;57.88;97550.34;5069003;28;20712;-73
2021/08/16 08:06:58;;;;;;;11.55;7.38;;;;;;;28.24;55.04;97544.00;5066938;28;20044;-74
2021/08/16 08:09:24;;;;;;;10.80;6.55;;;;;;;28.25;54.13;97540.00;5068270;28;20839;-71
2021/08/16 08:11:49;;;;;;;11.55;6.40;;;;;;;28.60;52.44;97539.50;5069364;28;20025;-72
2021/08/16 08:14:15;;;;;;;10.30;5.80;;;;;;;29.46;51.79;97540.53;5066663;28;20052;-73
2021/08/16 08:16:40;;;;;;;12.70;7.13;;;;;;;29.64;50.72;97534.56;5069083;28;20533;-72
2021/08/16 08:19:05;;;;;;;12.32;6.72;;;;;;;29.89;50.07;97534.09;5069565;28;20103;-72
2021/08/16 08:21:31;;;;;;;9.52;5.55;;;;;;;29.59;50.75;97538.69;5068937;28;20032;-72
2021/08/16 08:23:59;;;;;;;10.07;7.03;;;;;;;30.38;49.34;97532.28;5068775;28;21399;-73
2021/08/16 08:26:24;;;;;;;9.30;6.55;;;;;;;31.03;46.40;97531.19;5065944;28;20052;-73
2021/08/16 08:28:50;;;;;;;13.05;6.03;;;;;;;29.49;49.95;97528.41;5049714;28;20054;-73
2021/08/16 08:31:15;;;;;;;13.32;6.90;;;;;;;28.75;51.59;97521.19;5049867;28;20028;-72
2021/08/16 08:33:41;;;;;;;11.60;6.47;;;;;;;28.89;51.42;97528.59;5051353;28;20028;-73
2021/08/16 08:36:06;;;;;;;21.73;6.95;;;;;;;28.14;53.10;97529.66;5069042;28;20040;-75
2021/08/16 08:38:31;;;;;;;9.98;5.95;;;;;;;28.33;52.96;97530.22;5051028;28;20021;-73
2021/08/16 08:40:59;;;;;;;11.27;6.53;;;;;;;28.64;52.86;97529.75;5069246;28;20051;-74
2021/08/16 08:43:26;;;;;;;11.18;6.75;;;;;;;29.60;50.55;97531.81;5069198;28;20028;-74
2021/08/16 08:45:54;;;;;;;13.00;6.72;;;;;;;29.50;52.02;97526.38;5068919;28;20052;-74
2021/08/16 08:48:20;;;;;;;8.75;7.07;;;;;;;30.12;50.07;97536.88;5069862;28;20021;-74
2021/08/16 08:50:46;;;;;;;11.43;6.80;;;;;;;30.13;49.81;97533.63;5069618;28;20036;-74
2021/08/16 08:53:12;;;;;;;13.07;6.82;;;;;;;30.13;49.70;97533.63;5073498;28;20027;-75
2021/08/16 08:55:40;;;;;;;10.52;6.53;;;;;;;30.33;48.58;97529.94;5069625;28;20036;-73
2021/08/16 08:58:06;;;;;;;14.25;7.10;;;;;;;29.86;49.72;97534.97;5051764;28;20043;-74
2021/08/16 09:00:33;;;;;;;14.20;7.18;;;;;;;29.87;49.25;97522.47;5069456;28;20119;-73
2021/08/16 09:03:00;;;;;;;12.48;6.10;;;;;;;30.31;48.45;97524.75;5072199;28;20027;-74
2021/08/16 09:05:26;;;;;;;9.60;6.60;;;;;;;30.93;47.31;97520.91;5053554;28;20477;-73
2021/08/16 09:07:54;;;;;;;8.35;6.53;;;;;;;31.03;46.40;97511.41;5074855;28;20037;-74
2021/08/16 09:10:22;;;;;;;11.25;6.05;;;;;;;31.07;45.29;97528.28;5062396;28;20116;-75
2021/08/16 09:12:48;;;;;;;13.95;5.97;;;;;;;31.03;45.98;97524.75;5078032;28;20016;-74
2021/08/16 09:15:25;;;;;;;12.82;5.70;;;;;;;31.38;45.89;97526.69;5072221;28;20017;-74
2021/08/16 09:17:52;;;;;;;9.52;5.47;;;;;;;32.07;43.89;97532.91;5072916;28;20021;-73
2021/08/16 09:20:25;;;;;;;9.40;6.05;;;;;;;32.52;41.54;97519.41;5054126;28;20052;-75
2021/08/16 09:23:05;;;;;;;15.98;6.70;;;;;;;31.65;44.32;97524.34;5075484;28;20149;-74
2021/08/16 09:25:37;;;;;;;12.02;6.32;;;;;;;30.99;45.69;97527.66;5073307;28;20025;-74
2021/08/16 09:28:04;;;;;;;10.20;5.00;;;;;;;31.81;43.55;97526.34;5053855;28;20020;-74
2021/08/16 09:30:35;;;;;;;9.57;6.28;;;;;;;30.84;44.94;97519.94;5071293;28;20078;-73
2021/08/16 09:33:19;;;;;;;12.70;5.97;;;;;;;30.92;44.84;97508.00;5053246;28;20028;-74
2021/08/16 09:35:51;;;;;;;9.38;6.05;;;;;;;30.89;44.58;97506.06;5071687;28;20049;-72
2021/08/16 09:38:16;;;;;;;7.45;6.03;;;;;;;30.63;44.44;97510.75;5068831;28;20020;-73
2021/08/16 09:40:42;;;;;;;14.40;5.22;;;;;;;30.52;44.71;97498.88;5070624;28;20507;-74
2021/08/16 09:43:08;;;;;;;9.18;5.63;;;;;;;30.80;44.69;97497.41;5053372;28;20068;-73
2021/08/16 09:45:39;;;;;;;10.82;5.43;;;;;;;30.91;44.20;97500.00;5071324;28;20073;-72
2021/08/16 09:48:07;;;;;;;10.25;6.47;;;;;;;31.09;44.04;97491.88;5053487;28;20435;-73
2021/08/16 09:50:44;;;;;;;8.40;6.22;;;;;;;30.90;44.49;97487.09;5052833;28;20029;-74
2021/08/16 09:53:11;;;;;;;7.22;6.43;;;;;;;30.94;43.87;97484.97;5070583;28;20021;-75
2021/08/16 09:55:41;;;;;;;9.30;5.05;;;;;;;31.56;41.81;97490.25;5071880;28;20025;-75
2021/08/16 09:58:09;;;;;;;14.15;5.45;;;;;;;31.93;40.45;97496.47;5053546;28;20036;-74
2021/08/16 10:00:36;;;;;;;10.38;5.60;;;;;;;32.03;40.97;97484.06;5070811;28;20466;-73
2021/08/16 10:03:07;;;;;;;9.55;5.97;;;;;;;31.74;41.21;97493.38;5070522;28;20037;-74
2021/08/16 10:05:36;;;;;;;7.82;5.00;;;;;;;31.89;41.26;97495.81;5053116;28;20004;-74
2021/08/16 10:08:04;;;;;;;8.73;5.88;;;;;;;31.87;40.98;97498.28;5070840;28;20144;-73
2021/08/16 10:10:29;;;;;;;7.10;5.88;;;;;;;31.64;40.96;97497.28;5070321;28;20019;-74
2021/08/16 10:12:56;;;;;;;6.72;5.47;;;;;;;31.22;41.05;97479.44;5070498;28;20024;-75
2021/08/16 10:15:21;;;;;;;7.03;4.90;;;;;;;31.98;39.83;97484.63;5052782;28;20120;-74
2021/08/16 10:17:47;;;;;;;13.30;5.55;;;;;;;32.09;39.53;97470.97;5070962;28;20111;-74
2021/08/16 10:20:15;;;;;;;6.88;5.22;;;;;;;32.08;38.25;97466.56;5070251;28;20044;-75
2021/08/16 10:22:41;;;;;;;6.15;4.55;;;;;;;31.81;38.48;97464.88;5052643;28;20064;-73
2021/08/16 10:25:15;;;;;;;5.13;3.88;;;;;;;31.97;37.34;97460.38;5070541;28;20017;-74
2021/08/16 10:27:41;;;;;;;6.28;4.07;;;;;;;31.89;37.89;97454.13;5070326;28;20412;-74
2021/08/16 10:30:14;;;;;;;7.40;4.10;;;;;;;31.73;38.01;97455.00;5070386;28;20048;-72
2021/08/16 10:32:41;;;;;;;11.57;4.88;;;;;;;31.69;38.09;97454.31;5051959;28;20051;-74
2021/08/16 10:35:13;;;;;;;9.80;4.72;;;;;;;31.45;37.77;97446.50;5051954;28;20036;-74
2021/08/16 10:37:44;;;;;;;9.18;5.63;;;;;;;31.63;37.11;97444.78;5070367;28;20028;-73
2021/08/16 10:40:25;;;;;;;8.85;4.75;;;;;;;31.61;37.73;97447.25;5070553;28;20090;-73
2021/08/16 10:42:54;;;;;;;10.05;4.88;;;;;;;31.58;38.69;97434.00;5071298;28;20029;-72
2021/08/16 10:45:45;;;;;;;10.20;5.40;;;;;;;32.04;37.65;97431.91;5053022;28;20057;-75
2021/08/16 10:48:29;;;;;;;7.00;4.35;;;;;;;32.32;35.91;97419.69;5065543;28;20109;-74
2021/08/16 10:51:08;;;;;;;5.72;4.18;;;;;;;31.58;36.26;97413.41;5067552;28;20028;-74
2021/08/16 10:53:55;;;;;;;5.85;4.53;;;;;;;31.76;36.15;97410.88;5068601;28;20230;-72
2021/08/16 10:56:23;;;;;;;8.85;4.20;;;;;;;32.02;35.84;97408.88;5050503;28;20028;-74
2021/08/16 10:58:50;;;;;;;8.73;3.92;;;;;;;32.42;35.00;97404.41;5069598;28;20473;-75
2021/08/16 11:01:30;;;;;;;9.02;4.55;;;;;;;33.38;34.38;97399.13;5051671;28;20025;-73
2021/08/16 11:04:04;;;;;;;6.40;4.95;;;;;;;33.52;34.37;97401.41;5067445;28;20626;-73
2021/08/16 11:06:31;;;;;;;5.82;3.75;;;;;;;32.87;34.89;97387.13;5067324;28;20016;-73
2021/08/16 11:09:00;;;;;;;14.32;5.78;;;;;;;32.81;35.37;97392.59;5051317;28;20062;-74
2021/08/16 11:11:29;;;;;;;10.80;4.78;;;;;;;32.66;34.96;97387.84;5069329;28;20032;-73
2021/08/16 11:14:11;;;;;;;11.45;4.70;;;;;;;32.77;34.99;97377.72;5069325;28;20073;-71
2021/08/16 11:16:51;;;;;;;9.65;5.53;;;;;;;33.04;35.35;97373.59;5068110;28;20029;-73
2021/08/16 11:19:16;;;;;;;7.18;4.50;;;;;;;33.05;35.31;97375.19;5069234;28;20063;-73
2021/08/16 11:22:01;;;;;;;13.30;5.20;;;;;;;32.81;35.27;97371.94;5069520;28;21066;-74
2021/08/16 11:24:30;;;;;;;10.77;4.78;;;;;;;33.54;34.55;97373.38;5052484;28;20028;-74